Ana Sayfa
METAR-TAF:

METAR-TAF

Havaalanları :

Penn Valley Airport

Selinsgrove, Pensilvanya, Amerika Birleşik Devletleri

Enlem: 40-49-09N, Boylam: 076-51-58W, yükseklik: 137 m

Güncel hava durumu gözlemi

Rapor saat 05:53 UTC de 1 saat ve 10 dakika önce yapıldı.
Rüzgar değişken yönden 5 kt
Sıcaklık -3°C
Nem 50%
Basınç 1012 hPa
Görüş mesafesi: 16.1 km
Açık gökyüzü

METAR: KSEG 290553Z AUTO VRB05KT 10SM CLR M03/M12 A2988 RMK AO2 SLP123 T10281117 10000 21033 58006

Saat: 02:03 (07:03 UTC)


TAF: eksik

4.000'den fazla havaalanı için hava durumu gözlemleri ve tahminleri (METAR ve TAF raporları).

Kullanılabilir istasyonlar harita üzerinde sarı ve kırmızı noktalarla gösterilir.

İstasyonun adını görmek için fareyi noktanın üzerinde gezdirin.

Sonrasında hava gözlem ve tahminlerini görmek için tıklayın.

Haritayı değiştirmek için: yaklaştırmak için siyah artı işaretli yeşil düğmeye ve uzaklaştırmak için de eksi işaretli düğmeye hızla tıklayın; bitişik haritalar için yeşil okları kullanın.


METAR-TAF: